Data for 12/19/2005

Time Sea-Level Adjusted Pressure Absolute Pressure Temperature Relative Humidity Dew Point   
(mb) (inHg) (mb) (inHg) (C) (F) (%) (C) (F)
00:05 1023 30.21 853 25.19 -19.3 -2.8 84 -21.5 -6.6
00:10 1023 30.21 853 25.19 -19.7 -3.4 80 -22.2 -8
00:15 1024 30.24 853 25.19 -19.9 -3.9 86 -21.8 -7.2
00:20 1024 30.24 853 25.19 -19.3 -2.8 85 -21.3 -6.3
00:25 1023 30.21 853 25.19 -18.8 -1.9 83 -21 -5.8
00:30 1023 30.21 853 25.19 -18.6 -1.6 79 -21.4 -6.6
00:35 1023 30.21 853 25.19 -19.4 -2.9 83 -21.6 -6.9
00:40 1023 30.21 852 25.16 -20.4 -4.7 82 -22.7 -8.9
00:45 1023 30.21 853 25.19 -21 -5.8 90 -22.3 -8.1
00:50 1023 30.21 852 25.16 -20.1 -4.1 88 -21.6 -6.9
00:55 1023 30.21 852 25.16 -19.4 -3 87 -21 -5.8
01:00 1023 30.21 852 25.16 -19.2 -2.5 86 -21 -5.9
01:05 1023 30.21 852 25.16 -19.4 -2.9 84 -21.4 -6.6
01:10 1023 30.21 852 25.16 -19.5 -3.1 84 -21.5 -6.7
01:15 1023 30.21 852 25.16 -19.5 -3.1 81 -21.9 -7.5
01:20 1023 30.21 852 25.16 -19.5 -3.1 81 -22 -7.7
01:25 1023 30.21 853 25.19 -19.6 -3.2 80 -22.2 -8
01:30 1023 30.21 853 25.19 -19.8 -3.6 81 -22.3 -8.1
01:35 1023 30.21 853 25.19 -19.9 -3.8 80 -22.6 -8.6
01:40 1024 30.24 853 25.19 -20.8 -5.5 79 -23.6 -10.4
01:45 1024 30.24 853 25.19 -21.6 -6.8 86 -23.3 -9.9
01:50 1024 30.24 853 25.19 -21.3 -6.3 87 -22.9 -9.3
01:55 1023 30.21 853 25.19 -21 -5.7 88 -22.5 -8.4
02:00 1023 30.21 853 25.19 -20.5 -4.8 87 -22 -7.7
02:05 1023 30.21 853 25.19 -20.1 -4.3 88 -21.7 -7
02:10 1024 30.24 853 25.19 -20 -4 87 -21.7 -7.1
02:15 1024 30.24 853 25.19 -20.2 -4.4 88 -21.8 -7.2
02:20 1024 30.24 853 25.19 -20 -3.9 88 -21.5 -6.7
02:25 1024 30.24 853 25.19 -19.8 -3.7 88 -21.4 -6.5
02:30 1024 30.24 853 25.19 -19.7 -3.4 87 -21.3 -6.3
02:35 1024 30.24 853 25.19 -19.8 -3.6 83 -21.9 -7.4
02:40 1024 30.24 853 25.19 -20.1 -4.1 84 -22.1 -7.7
02:45 1024 30.24 853 25.19 -20 -4 86 -21.8 -7.3
02:50 1024 30.24 853 25.19 -19.9 -3.8 86 -21.6 -6.9
02:55 1024 30.24 853 25.19 -19.6 -3.3 85 -21.5 -6.8
03:00 1024 30.24 853 25.19 -19.7 -3.5 83 -22 -7.5
03:05 1024 30.24 853 25.19 -19.9 -3.8 85 -21.8 -7.2
03:10 1024 30.24 853 25.19 -19.9 -3.9 85 -21.9 -7.4
03:15 1024 30.24 853 25.19 -20.6 -5 84 -22.7 -8.8
03:20 1024 30.24 853 25.19 -20.7 -5.3 90 -21.9 -7.5
03:25 1024 30.24 853 25.19 -19.8 -3.7 88 -21.3 -6.4
03:30 1024 30.24 853 25.19 -19.8 -3.6 87 -21.4 -6.6
03:35 1024 30.24 853 25.19 -19.4 -2.9 87 -21 -5.8
03:40 1024 30.24 853 25.19 -19.4 -2.8 85 -21.3 -6.4
03:45 1024 30.24 853 25.19 -19.4 -3 86 -21.2 -6.2
03:50 1024 30.24 853 25.19 -20.1 -4.1 80 -22.7 -8.8
03:55 1024 30.24 853 25.19 -20.6 -5 87 -22.3 -8.1
04:00 1024 30.24 853 25.19 -20.2 -4.3 87 -21.9 -7.4
04:05 1024 30.24 853 25.19 -20 -3.9 87 -21.6 -6.9
04:10 1024 30.24 853 25.19 -19.7 -3.4 88 -21.2 -6.2
04:15 1024 30.24 853 25.19 -19.1 -2.4 87 -20.8 -5.4
04:20 1024 30.24 853 25.19 -18.8 -1.8 86 -20.5 -5
04:25 1024 30.24 853 25.19 -18.9 -2.1 84 -20.9 -5.7
04:30 1024 30.24 853 25.19 -19.4 -2.9 87 -21 -5.8
04:35 1024 30.24 853 25.19 -19.4 -2.9 87 -21.1 -5.9
04:40 1024 30.24 853 25.19 -19.4 -2.9 87 -21 -5.9
04:45 1024 30.24 853 25.19 -19.5 -3 88 -20.9 -5.7
04:50 1024 30.24 853 25.19 -18.8 -1.8 87 -20.4 -4.7
04:55 1024 30.24 853 25.19 -18.2 -0.7 85 -20.1 -4.2
05:00 1024 30.24 853 25.19 -17.9 -0.3 84 -20 -4
05:05 1024 30.24 853 25.19 -17.7 0.2 84 -19.7 -3.5
05:10 1024 30.24 853 25.19 -17.7 0.1 83 -20 -4
05:15 1024 30.24 853 25.19 -18.3 -0.9 80 -20.9 -5.7
05:20 1024 30.24 853 25.19 -18.7 -1.6 86 -20.5 -4.9
05:25 1024 30.24 853 25.19 -18.4 -1.1 83 -20.6 -5.1
05:30 1024 30.24 853 25.19 -18.5 -1.3 84 -20.6 -5.1
05:35 1024 30.24 853 25.19 -18.3 -0.9 87 -20 -4
05:40 1024 30.24 853 25.19 -17.6 0.3 85 -19.6 -3.3
05:45 1024 30.24 853 25.19 -17.4 0.8 83 -19.6 -3.2
05:50 1024 30.24 853 25.19 -17.4 0.6 84 -19.6 -3.2
05:55 1024 30.24 853 25.19 -17.3 0.8 82 -19.7 -3.5
06:00 1024 30.24 853 25.19 -17.5 0.6 84 -19.6 -3.3
06:05 1024 30.24 853 25.19 -17.4 0.8 86 -19.1 -2.5
06:10 1024 30.24 853 25.19 -17.2 1.1 83 -19.5 -3
06:15 1024 30.24 853 25.19 -17.2 1.1 81 -19.7 -3.5
06:20 1024 30.24 853 25.19 -17.4 0.7 81 -19.9 -3.8
06:25 1024 30.24 853 25.19 -17.6 0.3 81 -20.1 -4.2
06:30 1024 30.24 853 25.19 -17.8 -0.1 83 -20 -4
06:35 1024 30.24 853 25.19 -17.4 0.6 82 -19.8 -3.7
06:40 1024 30.24 853 25.19 -17.2 1 82 -19.6 -3.3
06:45 1024 30.24 853 25.19 -17.1 1.2 82 -19.5 -3.1
06:50 1024 30.24 853 25.19 -17 1.4 83 -19.2 -2.6
06:55 1024 30.24 853 25.19 -17.2 1.1 84 -19.3 -2.7
07:00 1024 30.24 853 25.19 -17.3 0.9 84 -19.4 -3
07:05 1024 30.24 853 25.19 -17.2 1 84 -19.3 -2.8
07:10 1024 30.24 853 25.19 -17.2 1 84 -19.3 -2.8
07:15 1024 30.24 853 25.19 -17.4 0.7 85 -19.4 -3
07:20 1023 30.21 853 25.19 -17.5 0.6 84 -19.5 -3.2
07:25 1023 30.21 853 25.19 -17.4 0.7 83 -19.6 -3.2
07:30 1023 30.21 853 25.19 -17.3 0.9 84 -19.4 -2.9
07:35 1023 30.21 853 25.19 -17 1.4 81 -19.5 -3.2
07:40 1023 30.21 853 25.19 -16.9 1.6 81 -19.5 -3.1
07:45 1023 30.21 853 25.19 -16.7 1.9 80 -19.4 -3
07:50 1023 30.21 853 25.19 -16.6 2.1 81 -19.1 -2.4
07:55 1023 30.21 852 25.16 -16.5 2.4 81 -19 -2.2
08:00 1023 30.21 852 25.16 -16.5 2.4 80 -19.1 -2.4
08:05 1023 30.21 852 25.16 -16.6 2.1 81 -19.1 -2.5
08:10 1023 30.21 852 25.16 -16.7 2 83 -18.9 -2
08:15 1023 30.21 852 25.16 -16.5 2.2 82 -19 -2.1
08:20 1023 30.21 852 25.16 -16.4 2.5 81 -18.9 -2.1
08:25 1023 30.21 852 25.16 -16.4 2.5 81 -19 -2.2
08:30 1023 30.21 852 25.16 -16.5 2.3 81 -19.1 -2.4
08:35 1023 30.21 853 25.19 -16.3 2.7 79 -19.1 -2.5
08:40 1024 30.24 853 25.19 -16.1 3 78 -19.1 -2.5
08:45 1024 30.24 853 25.19 -16 3.2 76 -19.3 -2.8
08:50 1024 30.24 853 25.19 -15.7 3.7 75 -19.2 -2.5
08:55 1024 30.24 853 25.19 -15.4 4.3 74 -19.1 -2.3
09:00 1024 30.24 853 25.19 -15 5 71 -19.2 -2.5
09:05 1024 30.24 853 25.19 -14.5 5.9 67 -19.3 -2.8
09:10 1024 30.24 853 25.19 -14.8 5.3 69 -19.2 -2.6
09:15 1024 30.24 854 25.22 -15.1 4.8 70 -19.4 -2.8
09:20 1025 30.27 854 25.22 -15.6 3.8 74 -19.2 -2.6
09:25 1025 30.27 854 25.22 -16.1 2.9 77 -19.3 -2.8
09:30 1025 30.27 854 25.22 -15.9 3.4 75 -19.4 -2.9
09:35 1025 30.27 854 25.22 -15.7 3.7 77 -18.8 -1.9
09:40 1025 30.27 854 25.22 -15.6 3.8 77 -18.8 -1.9
09:45 1025 30.27 854 25.22 -15.7 3.7 78 -18.8 -1.8
09:50 1025 30.27 854 25.22 -15.6 4 78 -18.6 -1.4
09:55 1025 30.27 854 25.22 -15.6 3.9 79 -18.5 -1.4
10:00 1025 30.27 854 25.22 -15.5 4 78 -18.6 -1.5
10:05 1025 30.27 854 25.22 -15.6 4 80 -18.3 -1
10:10 1025 30.27 854 25.22 -15.4 4.4 78 -18.4 -1.1
10:15 1025 30.27 854 25.22 -15.2 4.7 76 -18.6 -1.5
10:20 1025 30.27 854 25.22 -15.1 4.9 76 -18.5 -1.2
10:25 1025 30.27 854 25.22 -14.9 5.2 77 -18.1 -0.6
10:30 1025 30.27 854 25.22 -14.4 6.1 77 -17.7 0.2
10:35 1025 30.27 854 25.22 -14 6.8 76 -17.4 0.7
10:40 1025 30.27 854 25.22 -13.4 7.9 73 -17.3 0.9
10:45 1025 30.27 854 25.22 -13.6 7.6 75 -17.1 1.2
10:50 1025 30.27 854 25.22 -13.4 7.9 74 -17.1 1.3
10:55 1025 30.27 854 25.22 -13.4 8 75 -16.8 1.7
11:00 1025 30.27 854 25.22 -12.9 8.8 74 -16.5 2.2
11:05 1025 30.27 854 25.22 -12.9 8.7 74 -16.7 2
11:10 1025 30.27 854 25.22 -12.9 8.8 76 -16.3 2.6
11:15 1025 30.27 854 25.22 -12.3 9.9 75 -15.9 3.4
11:20 1025 30.27 854 25.22 -11.8 10.8 74 -15.5 4.1
11:25 1025 30.27 854 25.22 -11.2 11.8 71 -15.5 4.1
11:30 1024 30.24 854 25.22 -11.5 11.2 73 -15.4 4.3
11:35 1024 30.24 854 25.22 -11.3 11.7 72 -15.3 4.4
11:40 1024 30.24 854 25.22 -10.8 12.6 71 -15.1 4.9
11:45 1024 30.24 854 25.22 -10.4 13.3 68 -15.1 4.8
11:50 1024 30.24 853 25.19 -9.5 14.8 66 -14.8 5.4
11:55 1024 30.24 853 25.19 -9.1 15.6 65 -14.6 5.8
12:00 1024 30.24 853 25.19 -9.3 15.4 65 -14.6 5.7
12:05 1024 30.24 853 25.19 -8.7 16.3 64 -14.4 6.1
12:10 1024 30.24 853 25.19 -8.2 17.3 60 -14.6 5.7
12:15 1024 30.24 853 25.19 -7.9 17.8 61 -14.1 6.6
12:20 1024 30.24 853 25.19 -7.2 19.1 58 -14.2 6.4
12:25 1024 30.24 853 25.19 -7.4 18.6 61 -13.6 7.4
12:30 1024 30.24 853 25.19 -6.8 19.7 58 -13.7 7.3
12:35 1024 30.24 853 25.19 -6.2 20.8 56 -13.7 7.4
12:40 1024 30.24 853 25.19 -6.4 20.5 59 -13.2 8.2
12:45 1024 30.24 853 25.19 -6.5 20.3 57 -13.6 7.5
12:50 1024 30.24 853 25.19 -6.3 20.6 58 -13.4 7.9
12:55 1024 30.24 853 25.19 -6.5 20.4 58 -13.3 8
13:00 1024 30.24 853 25.19 -6.4 20.5 58 -13.4 7.8
13:05 1024 30.24 853 25.19 -6.6 20.1 59 -13.4 7.8
13:10 1024 30.24 853 25.19 -6.3 20.8 57 -13.4 7.8
13:15 1024 30.24 853 25.19 -6.2 20.9 57 -13.4 7.8
13:20 1024 30.24 853 25.19 -5.9 21.4 55 -13.5 7.8
13:25 1024 30.24 853 25.19 -5.4 22.2 53 -13.6 7.6
13:30 1024 30.24 853 25.19 -5.5 22.2 54 -13.3 8.1
13:35 1024 30.24 853 25.19 -5.5 22 55 -13.3 8.1
13:40 1024 30.24 853 25.19 -5.8 21.6 56 -13.2 8.3
13:45 1024 30.24 853 25.19 -5.6 21.9 56 -13 8.6
13:50 1024 30.24 853 25.19 -5.4 22.3 54 -13.3 8
13:55 1024 30.24 853 25.19 -6.2 20.9 58 -13.2 8.3
14:00 1024 30.24 853 25.19 -6.8 19.8 58 -13.8 7.2
14:05 1024 30.24 853 25.19 -6.3 20.7 56 -13.7 7.3
14:10 1024 30.24 853 25.19 -5.9 21.5 54 -13.7 7.4
14:15 1024 30.24 853 25.19 -5.5 22 54 -13.5 7.7
14:20 1024 30.24 853 25.19 -5.5 22 55 -13.2 8.2
14:25 1024 30.24 853 25.19 -6.1 21.1 57 -13.4 7.9
14:30 1024 30.24 853 25.19 -5.7 21.7 55 -13.5 7.7
14:35 1024 30.24 853 25.19 -5.6 21.8 54 -13.5 7.7
14:40 1024 30.24 853 25.19 -5.1 22.8 53 -13.3 8
14:45 1024 30.24 853 25.19 -4.6 23.8 51 -13.2 8.2
14:50 1024 30.24 853 25.19 -4.6 23.7 52 -13.1 8.4
14:55 1024 30.24 853 25.19 -5.4 22.2 55 -13 8.6
15:00 1024 30.24 853 25.19 -5.8 21.5 55 -13.6 7.6
15:05 1024 30.24 853 25.19 -7.4 18.8 60 -13.9 7
15:10 1024 30.24 853 25.19 -8.4 16.9 63 -14.1 6.5
15:15 1024 30.24 853 25.19 -9.1 15.6 65 -14.5 6
15:20 1024 30.24 853 25.19 -9.4 15 67 -14.5 5.9
15:25 1024 30.24 853 25.19 -9.7 14.6 67 -14.6 5.7
15:30 1023 30.21 853 25.19 -9.5 14.8 67 -14.6 5.8
15:35 1023 30.21 853 25.19 -9.4 15 66 -14.6 5.8
15:40 1023 30.21 853 25.19 -9.5 14.9 67 -14.5 6
15:45 1023 30.21 853 25.19 -9.4 15 67 -14.4 6.1
15:50 1023 30.21 853 25.19 -9.3 15.2 67 -14.3 6.2
15:55 1023 30.21 853 25.19 -9.4 15.1 68 -14.3 6.3
16:00 1023 30.21 853 25.19 -9.6 14.8 69 -14.2 6.4
16:05 1023 30.21 853 25.19 -9.7 14.6 70 -14.1 6.5
16:10 1023 30.21 853 25.19 -9.3 15.2 69 -14 6.7
16:15 1023 30.21 853 25.19 -9.4 15 69 -14 6.7
16:20 1024 30.24 853 25.19 -9.5 14.9 70 -14 6.8
16:25 1024 30.24 853 25.19 -9.2 15.5 69 -13.9 7.1
16:30 1024 30.24 853 25.19 -8.5 16.7 67 -13.5 7.7
16:35 1024 30.24 853 25.19 -8.3 17.1 67 -13.5 7.8
16:40 1024 30.24 853 25.19 -8.6 16.5 68 -13.5 7.6
16:45 1024 30.24 853 25.19 -8.9 15.9 69 -13.5 7.6
16:50 1024 30.24 853 25.19 -9 15.9 70 -13.5 7.6
16:55 1024 30.24 853 25.19 -8.8 16.2 69 -13.4 7.9
17:00 1024 30.24 853 25.19 -8.7 16.3 70 -13.3 8
17:05 1024 30.24 853 25.19 -8.7 16.3 70 -13.2 8.2
17:10 1024 30.24 853 25.19 -8.7 16.3 71 -13 8.5
17:15 1024 30.24 853 25.19 -8.4 17 70 -12.9 8.7
17:20 1024 30.24 853 25.19 -8 17.6 68 -12.9 8.8
17:25 1024 30.24 853 25.19 -7.9 17.8 69 -12.6 9.3
17:30 1024 30.24 853 25.19 -7.9 17.8 69 -12.6 9.3
17:35 1024 30.24 853 25.19 -8 17.7 68 -12.9 8.9
17:40 1024 30.24 853 25.19 -8.2 17.3 68 -13.1 8.3
17:45 1024 30.24 853 25.19 -8.6 16.6 69 -13.2 8.2
17:50 1024 30.24 853 25.19 -9.2 15.4 73 -13.3 8.1
17:55 1024 30.24 853 25.19 -9.1 15.6 74 -13 8.6
18:00 1024 30.24 853 25.19 -9 15.9 72 -13.1 8.4
18:05 1024 30.24 853 25.19 -8.7 16.4 71 -13 8.6
18:10 1024 30.24 853 25.19 -8.6 16.5 70 -13.1 8.4
18:15 1024 30.24 853 25.19 -8.7 16.3 72 -13 8.7
18:20 1024 30.24 853 25.19 -9 15.7 75 -12.8 9
18:25 1024 30.24 853 25.19 -9.1 15.6 74 -12.9 8.7
18:30 1024 30.24 854 25.22 -9.2 15.4 74 -13.1 8.5
18:35 1024 30.24 853 25.19 -9.9 14.2 78 -13.1 8.4
18:40 1024 30.24 854 25.22 -10 14.1 77 -13.2 8.2
18:45 1024 30.24 853 25.19 -10 14.1 78 -13.1 8.5
18:50 1024 30.24 853 25.19 -10.1 13.8 78 -13.2 8.2
18:55 1024 30.24 853 25.19 -10.5 13 81 -13.2 8.2
19:00 1024 30.24 853 25.19 -10.6 12.8 81 -13.3 8.1
19:05 1024 30.24 853 25.19 -10.3 13.5 80 -13.1 8.5
19:10 1024 30.24 853 25.19 -9.5 14.9 79 -12.5 9.4
19:15 1024 30.24 853 25.19 -9 15.9 81 -11.7 10.9
19:20 1024 30.24 853 25.19 -8.7 16.3 78 -12 10.5
19:25 1024 30.24 853 25.19 -8.5 16.7 76 -12 10.3
19:30 1024 30.24 853 25.19 -8.8 16.2 78 -12 10.3
19:35 1024 30.24 853 25.19 -9 15.8 78 -12.1 10.2
19:40 1024 30.24 854 25.22 -8.7 16.3 78 -11.9 10.5
19:45 1025 30.27 854 25.22 -8.4 16.9 77 -11.8 10.8
19:50 1025 30.27 854 25.22 -8.1 17.4 75 -11.8 10.7
19:55 1025 30.27 854 25.22 -8 17.6 75 -11.7 11
20:00 1025 30.27 854 25.22 -8.2 17.3 76 -11.6 11.1
20:05 1025 30.27 854 25.22 -8.7 16.4 80 -11.6 11.2
20:10 1025 30.27 854 25.22 -8.6 16.6 78 -11.7 10.9
20:15 1025 30.27 854 25.22 -8.5 16.7 78 -11.6 11.1
20:20 1025 30.27 854 25.22 -8.5 16.6 78 -11.6 11
20:25 1025 30.27 854 25.22 -8.7 16.3 80 -11.6 11.1
20:30 1025 30.27 854 25.22 -8.9 16 80 -11.8 10.8
20:35 1025 30.27 854 25.22 -9 15.8 81 -11.7 10.9
20:40 1025 30.27 854 25.22 -9.1 15.7 82 -11.6 11
20:45 1025 30.27 854 25.22 -8.7 16.4 83 -11.1 12
20:50 1025 30.27 854 25.22 -8.2 17.3 79 -11.2 11.8
20:55 1025 30.27 854 25.22 -8 17.7 79 -11 12.1
21:00 1025 30.27 854 25.22 -7.9 17.8 79 -10.9 12.3
21:05 1025 30.27 854 25.22 -7.7 18.1 79 -10.7 12.8
21:10 1024 30.24 854 25.22 -7.8 17.9 81 -10.5 13
21:15 1024 30.24 854 25.22 -7.8 17.9 82 -10.4 13.2
21:20 1024 30.24 853 25.19 -7.6 18.2 81 -10.3 13.4
21:25 1024 30.24 853 25.19 -7.3 18.9 80 -10.2 13.7
21:30 1024 30.24 854 25.22 -7 19.4 79 -10.1 13.9
21:35 1024 30.24 854 25.22 -6.7 19.9 78 -9.9 14.2
21:40 1024 30.24 854 25.22 -6.4 20.4 80 -9.4 15.1
21:45 1024 30.24 853 25.19 -6 21.2 78 -9.2 15.4
21:50 1024 30.24 853 25.19 -5.7 21.7 77 -9 15.7
21:55 1024 30.24 854 25.22 -5.5 22.1 78 -8.8 16.1
22:00 1025 30.27 854 25.22 -5.1 22.9 75 -8.8 16.2
22:05 1024 30.24 854 25.22 -4.9 23.2 75 -8.6 16.6
22:10 1025 30.27 854 25.22 -5 23 76 -8.5 16.6
22:15 1025 30.27 854 25.22 -5.1 22.8 77 -8.5 16.6
22:20 1025 30.27 854 25.22 -5.2 22.6 78 -8.5 16.6
22:25 1025 30.27 854 25.22 -5.3 22.5 79 -8.4 16.8
22:30 1025 30.27 854 25.22 -5.2 22.6 78 -8.5 16.8
22:35 1025 30.27 854 25.22 -5 23 77 -8.4 17
22:40 1025 30.27 854 25.22 -5.3 22.4 78 -8.5 16.6
22:45 1025 30.27 854 25.22 -5.9 21.4 79 -8.9 15.9
22:50 1025 30.27 854 25.22 -6.8 19.8 82 -9.5 15
22:55 1025 30.27 854 25.22 -7.6 18.3 85 -9.8 14.4
23:00 1025 30.27 854 25.22 -7.9 17.9 85 -9.9 14.1
23:05 1025 30.27 854 25.22 -7.8 17.9 85 -9.9 14.2
23:10 1025 30.27 854 25.22 -7.9 17.8 86 -9.8 14.4
23:15 1025 30.27 854 25.22 -7.8 18 86 -9.7 14.5
23:20 1025 30.27 854 25.22 -7.6 18.2 87 -9.5 15
23:25 1025 30.27 854 25.22 -7.2 19 87 -9.1 15.6
23:30 1025 30.27 854 25.22 -6.7 19.9 86 -8.7 16.3
23:35 1025 30.27 854 25.22 -6.6 20.2 85 -8.8 16.2
23:40 1025 30.27 854 25.22 -6.7 20 85 -8.8 16.1
23:45 1025 30.27 854 25.22 -6.7 19.9 85 -8.8 16.2
23:50 1025 30.27 854 25.22 -6.5 20.4 84 -8.8 16.2
23:55 1025 30.27 854 25.22 -6.3 20.6 83 -8.7 16.4
24:00 1025 30.27 854 25.22 -5.9 21.3 82 -8.5 16.7